Time;durP1;ratioP1;P1;durP2;ratioP2;P2;SDS_P1;SDS_P2;PMS_P1;PMS_P2;Temp;Humidity;BMP_temperature;BMP_pressure;BME280_temperature;BME280_humidity;BME280_pressure;Samples;Min_cycle;Max_cycle;Signal;HPM_P1;HPM_P2
2022/06/22 00:01:56;;;;;;;16.35;9.82;;;22.40;99.90;;;;;;5072850;28;20210;-73
2022/06/22 00:04:28;;;;;;;13.40;8.98;;;22.40;99.90;;;;;;5070746;28;20202;-71
2022/06/22 00:06:59;;;;;;;13.23;9.93;;;22.40;99.90;;;;;;5072942;28;20214;-72
2022/06/22 00:09:29;;;;;;;15.57;10.13;;;22.40;99.90;;;;;;5072748;28;20358;-72
2022/06/22 00:11:58;;;;;;;18.30;9.27;;;22.30;99.90;;;;;;5072962;28;20210;-71
2022/06/22 00:14:29;;;;;;;13.32;9.07;;;22.30;99.90;;;;;;5072006;28;20256;-75
2022/06/22 00:16:57;;;;;;;19.73;10.27;;;22.30;99.90;;;;;;5072821;28;20206;-72
2022/06/22 00:19:29;;;;;;;8.95;7.82;;;22.30;99.90;;;;;;5071843;28;20693;-73
2022/06/22 00:21:58;;;;;;;16.52;8.50;;;22.30;99.90;;;;;;5072710;28;20712;-73
2022/06/22 00:24:40;;;;;;;14.32;8.60;;;22.40;99.90;;;;;;5072350;28;20206;-73
2022/06/22 00:27:26;;;;;;;11.13;7.80;;;22.30;99.90;;;;;;5072654;28;20255;-74
2022/06/22 00:30:14;;;;;;;18.52;7.57;;;22.30;99.90;;;;;;5072384;28;20202;-72
2022/06/22 00:32:54;;;;;;;14.10;7.63;;;22.30;99.90;;;;;;5072562;28;20210;-72
2022/06/22 00:35:47;;;;;;;15.02;6.68;;;22.40;99.90;;;;;;5058289;28;20251;-73
2022/06/22 00:38:18;;;;;;;8.65;5.50;;;22.40;99.90;;;;;;5072538;28;20214;-73
2022/06/22 00:40:50;;;;;;;11.57;6.38;;;22.50;99.90;;;;;;5072237;28;20233;-73
2022/06/22 00:43:18;;;;;;;13.38;6.13;;;22.60;99.90;;;;;;5071684;28;20207;-71
2022/06/22 00:45:47;;;;;;;14.25;7.03;;;22.60;99.90;;;;;;5072341;28;20206;-72
2022/06/22 00:48:22;;;;;;;10.23;6.50;;;22.70;99.90;;;;;;5072330;28;20696;-73
2022/06/22 00:50:55;;;;;;;11.60;6.10;;;22.70;99.90;;;;;;5059076;28;20202;-73
2022/06/22 00:53:31;;;;;;;9.00;6.82;;;22.60;99.90;;;;;;5071778;28;20210;-73
2022/06/22 00:56:05;;;;;;;16.17;6.25;;;22.60;99.90;;;;;;5071940;28;20209;-76
2022/06/22 00:58:40;;;;;;;11.90;7.40;;;22.50;99.90;;;;;;5071247;28;20214;-74
2022/06/22 01:01:19;;;;;;;17.88;8.93;;;22.50;99.90;;;;;;5071812;28;20225;-74
2022/06/22 01:03:53;;;;;;;15.80;8.80;;;22.50;99.90;;;;;;5071623;28;20206;-72
2022/06/22 01:06:26;;;;;;;14.90;8.80;;;22.40;99.90;;;;;;5071453;28;20294;-74
2022/06/22 01:09:01;;;;;;;11.77;8.57;;;22.40;99.90;;;;;;5071718;28;20202;-72
2022/06/22 01:14:23;;;;;;;12.48;8.80;;;22.30;99.90;;;;;;5071368;28;20653;-73
2022/06/22 01:16:54;;;;;;;13.43;9.63;;;22.30;99.90;;;;;;5071771;28;20210;-81
2022/06/22 01:19:46;;;;;;;13.85;8.57;;;22.40;99.90;;;;;;5071144;28;20203;-74
2022/06/22 01:22:28;;;;;;;13.77;8.98;;;22.40;99.90;;;;;;5071879;28;20214;-74
2022/06/22 01:25:14;;;;;;;16.58;9.63;;;22.30;99.90;;;;;;5058265;28;20305;-73
2022/06/22 01:27:44;;;;;;;11.52;10.30;;;22.30;99.90;;;;;;5071314;28;20206;-74
2022/06/22 01:30:22;;;;;;;12.15;9.15;;;22.20;99.90;;;;;;5071546;28;20678;-73
2022/06/22 01:32:49;;;;;;;13.00;9.43;;;22.30;99.90;;;;;;5071091;28;20752;-74
2022/06/22 01:35:21;;;;;;;16.83;10.15;;;22.20;99.90;;;;;;5071201;28;20268;-74
2022/06/22 01:37:48;;;;;;;12.77;9.70;;;22.20;99.90;;;;;;5071034;28;20210;-75
2022/06/22 01:40:18;;;;;;;13.85;9.90;;;22.20;99.90;;;;;;5070950;28;20283;-74
2022/06/22 01:42:53;;;;;;;12.30;9.48;;;22.20;99.90;;;;;;5071079;28;20267;-73
2022/06/22 01:45:28;;;;;;;18.05;11.43;;;22.20;99.90;;;;;;5057740;28;20259;-74
2022/06/22 01:48:00;;;;;;;12.43;9.88;;;22.20;99.90;;;;;;5070485;28;20231;-74
2022/06/22 01:50:34;;;;;;;13.52;9.15;;;22.10;99.90;;;;;;5070490;28;20259;-74
2022/06/22 01:53:10;;;;;;;14.45;9.82;;;22.10;99.90;;;;;;5070737;28;20217;-74
2022/06/22 01:55:44;;;;;;;11.77;9.15;;;22.10;99.90;;;;;;5070587;28;20209;-74
2022/06/22 01:58:35;;;;;;;16.10;9.25;;;22.10;99.90;;;;;;5071207;28;20240;-75
2022/06/22 02:01:10;;;;;;;11.10;9.60;;;22.10;99.90;;;;;;5070590;28;20657;-75
2022/06/22 02:03:44;;;;;;;12.95;9.63;;;22.00;99.90;;;;;;5070197;28;20625;-76
2022/06/22 02:09:07;;;;;;;17.75;10.52;;;22.00;99.90;;;;;;5070474;28;20227;-76
2022/06/22 02:11:39;;;;;;;12.73;9.85;;;21.90;99.90;;;;;;5070267;28;20821;-77
2022/06/22 02:14:14;;;;;;;15.77;10.80;;;21.90;99.90;;;;;;5070548;28;20230;-75
2022/06/22 02:16:45;;;;;;;13.25;10.50;;;21.90;99.90;;;;;;5070561;28;20665;-76
2022/06/22 02:19:15;;;;;;;14.80;10.10;;;21.90;99.90;;;;;;5070880;28;20211;-75
2022/06/22 02:21:44;;;;;;;12.48;10.55;;;21.90;99.90;;;;;;5070638;28;20247;-76
2022/06/22 02:24:15;;;;;;;11.95;10.55;;;21.90;99.90;;;;;;5070550;28;20265;-77
2022/06/22 02:26:46;;;;;;;15.85;10.40;;;21.90;99.90;;;;;;5071006;28;20233;-76
2022/06/22 02:29:18;;;;;;;14.82;11.73;;;21.90;99.90;;;;;;5070766;28;20214;-75
2022/06/22 02:31:46;;;;;;;15.23;10.02;;;21.90;99.90;;;;;;5070728;28;20206;-75
2022/06/22 02:34:14;;;;;;;17.63;10.38;;;21.80;99.90;;;;;;5070694;28;20242;-75
2022/06/22 02:36:46;;;;;;;16.88;10.10;;;21.70;99.90;;;;;;5070190;28;20206;-74
2022/06/22 02:39:16;;;;;;;14.52;9.82;;;21.70;99.90;;;;;;5070618;28;20268;-74
2022/06/22 02:44:33;;;;;;;10.57;8.50;;;21.80;99.90;;;;;;5070186;28;20343;-73
2022/06/22 02:47:12;;;;;;;15.00;9.13;;;21.90;99.90;;;;;;5056808;28;20206;-73
2022/06/22 02:49:44;;;;;;;17.25;9.00;;;22.00;99.90;;;;;;5070007;28;20206;-73
2022/06/22 02:52:14;;;;;;;12.68;8.32;;;22.00;99.90;;;;;;5070599;28;20330;-74
2022/06/22 02:54:46;;;;;;;20.35;10.55;;;22.00;99.90;;;;;;5070390;28;20241;-74
2022/06/22 02:57:18;;;;;;;11.02;8.40;;;22.00;99.90;;;;;;5057088;28;20202;-73
2022/06/22 02:59:49;;;;;;;11.98;8.15;;;22.00;99.90;;;;;;5070181;28;20275;-73
2022/06/22 03:02:17;;;;;;;10.43;6.93;;;22.00;99.90;;;;;;5060233;28;20234;-74
2022/06/22 03:04:47;;;;;;;15.13;8.93;;;22.10;99.90;;;;;;5074510;28;20209;-75
2022/06/22 03:07:14;;;;;;;7.53;4.57;;;22.10;99.90;;;;;;5074092;28;20220;-75
2022/06/22 03:09:43;;;;;;;8.68;4.25;;;22.10;99.90;;;;;;5074119;28;20206;-74
2022/06/22 03:12:13;;;;;;;9.60;4.00;;;21.80;99.90;;;;;;5073994;28;20210;-74
2022/06/22 03:14:51;;;;;;;8.45;4.38;;;21.70;99.90;;;;;;5073763;28;20572;-76
2022/06/22 03:17:19;;;;;;;9.45;3.67;;;21.70;99.90;;;;;;5073647;28;20213;-73
2022/06/22 03:19:50;;;;;;;9.48;4.53;;;21.50;99.90;;;;;;5060454;28;20289;-73
2022/06/22 03:22:20;;;;;;;10.48;3.60;;;21.40;99.90;;;;;;5073253;28;20295;-73
2022/06/22 03:24:54;;;;;;;7.30;4.07;;;21.20;99.90;;;;;;5073720;28;20234;-73
2022/06/22 03:27:25;;;;;;;9.68;4.38;;;21.10;99.90;;;;;;5073351;28;20213;-72
2022/06/22 03:29:58;;;;;;;8.10;4.20;;;21.10;99.90;;;;;;5073543;28;20229;-73
2022/06/22 03:32:29;;;;;;;8.65;4.30;;;21.10;99.90;;;;;;5073038;28;20218;-73
2022/06/22 03:35:02;;;;;;;9.93;5.53;;;20.90;99.90;;;;;;5073438;28;20221;-73
2022/06/22 03:37:34;;;;;;;10.77;5.32;;;20.80;99.90;;;;;;5073125;28;20213;-73
2022/06/22 03:40:06;;;;;;;6.72;5.70;;;20.70;99.90;;;;;;5073379;28;20259;-73
2022/06/22 03:42:36;;;;;;;9.32;5.47;;;20.70;99.90;;;;;;5072943;28;20340;-73
2022/06/22 03:45:10;;;;;;;7.32;4.93;;;20.70;99.90;;;;;;5073321;28;20631;-73
2022/06/22 03:47:43;;;;;;;9.70;6.45;;;20.70;99.90;;;;;;5072939;28;21034;-73
2022/06/22 03:50:16;;;;;;;7.95;5.75;;;20.60;99.90;;;;;;5073074;28;20681;-74
2022/06/22 03:52:48;;;;;;;9.27;6.53;;;20.50;99.90;;;;;;5073502;28;20268;-74
2022/06/22 03:55:19;;;;;;;8.82;5.50;;;20.30;99.90;;;;;;5073180;28;20206;-74
2022/06/22 03:57:50;;;;;;;11.63;5.78;;;20.20;99.90;;;;;;5073186;28;20339;-74
2022/06/22 04:00:20;;;;;;;8.38;5.82;;;20.20;99.90;;;;;;5072410;28;20206;-74
2022/06/22 04:02:49;;;;;;;7.25;5.35;;;20.30;99.90;;;;;;5073227;28;20242;-74
2022/06/22 04:05:18;;;;;;;8.55;5.32;;;20.40;99.90;;;;;;5072873;28;20231;-74
2022/06/22 04:07:47;;;;;;;6.80;5.93;;;20.30;99.90;;;;;;5073040;28;20206;-74
2022/06/22 04:10:31;;;;;;;6.55;5.65;;;20.30;99.90;;;;;;5073231;28;20214;-74
2022/06/22 04:13:00;;;;;;;10.95;6.18;;;20.30;99.90;;;;;;5072451;28;20570;-73
2022/06/22 04:15:34;;;;;;;7.90;5.10;;;20.30;99.90;;;;;;5072666;28;20275;-74
2022/06/22 04:18:07;;;;;;;9.65;6.00;;;20.20;99.90;;;;;;5072937;28;20202;-73
2022/06/22 04:20:51;;;;;;;9.70;6.45;;;20.10;99.90;;;;;;5072104;28;20362;-74
2022/06/22 04:23:24;;;;;;;9.85;6.60;;;20.00;99.90;;;;;;5059707;28;20626;-74
2022/06/22 04:25:52;;;;;;;8.15;5.97;;;20.00;99.90;;;;;;5072621;28;20292;-74
2022/06/22 04:28:20;;;;;;;11.25;6.53;;;20.20;99.90;;;;;;5072405;28;20210;-74
2022/06/22 04:30:51;;;;;;;10.95;6.65;;;20.30;99.90;;;;;;5072487;28;20743;-73
2022/06/22 04:33:23;;;;;;;8.00;6.65;;;20.40;99.90;;;;;;5072031;28;20214;-75
2022/06/22 04:35:56;;;;;;;7.20;6.45;;;20.40;99.90;;;;;;5072228;28;20206;-75
2022/06/22 04:38:28;;;;;;;9.77;6.95;;;20.50;99.90;;;;;;5071770;28;20206;-75
2022/06/22 04:41:02;;;;;;;12.77;8.52;;;20.50;99.90;;;;;;5072145;28;21055;-74
2022/06/22 04:43:29;;;;;;;10.25;5.55;;;20.50;99.90;;;;;;5071880;28;20244;-74
2022/06/22 04:45:58;;;;;;;9.02;8.18;;;20.60;99.90;;;;;;5072126;28;20582;-74
2022/06/22 04:48:29;;;;;;;7.18;6.47;;;20.70;99.90;;;;;;5071746;28;20251;-73
2022/06/22 04:50:59;;;;;;;10.13;6.65;;;20.80;99.90;;;;;;5072068;28;20711;-74
2022/06/22 04:53:32;;;;;;;8.55;7.60;;;20.90;99.90;;;;;;5071619;28;20237;-74
2022/06/22 04:56:04;;;;;;;10.30;7.18;;;20.90;99.90;;;;;;5071966;28;20251;-73
2022/06/22 04:58:40;;;;;;;11.32;8.07;;;20.80;99.90;;;;;;5071033;28;20244;-74
2022/06/22 05:01:14;;;;;;;9.23;7.18;;;20.70;99.90;;;;;;5071982;28;20221;-74
2022/06/22 05:03:41;;;;;;;9.57;7.57;;;20.60;99.90;;;;;;5071250;28;20275;-74
2022/06/22 05:06:13;;;;;;;13.10;7.43;;;20.80;99.90;;;;;;5071937;28;20206;-74
2022/06/22 05:08:45;;;;;;;10.43;7.95;;;20.90;99.90;;;;;;5071420;28;20210;-74
2022/06/22 05:11:18;;;;;;;12.98;10.00;;;20.80;99.90;;;;;;5071938;28;20255;-73
2022/06/22 05:13:49;;;;;;;12.57;10.38;;;20.80;99.90;;;;;;5071817;28;20217;-74
2022/06/22 05:16:21;;;;;;;12.57;9.20;;;20.80;99.90;;;;;;5071425;28;20725;-75
2022/06/22 05:18:50;;;;;;;10.50;9.55;;;20.80;99.90;;;;;;5071373;28;20293;-73
2022/06/22 05:21:20;;;;;;;12.57;9.90;;;20.80;99.90;;;;;;5071640;28;20230;-73
2022/06/22 05:23:51;;;;;;;11.23;8.27;;;20.80;99.90;;;;;;5070912;28;20241;-74
2022/06/22 05:26:22;;;;;;;13.70;8.93;;;21.00;99.90;;;;;;5070756;28;20210;-72
2022/06/22 05:28:55;;;;;;;10.35;8.30;;;21.10;99.90;;;;;;5071587;28;20755;-72
2022/06/22 05:31:29;;;;;;;12.27;8.73;;;21.20;99.90;;;;;;5070870;28;20740;-72
2022/06/22 05:34:00;;;;;;;11.05;9.00;;;21.10;99.90;;;;;;5070978;28;20263;-72
2022/06/22 05:36:30;;;;;;;9.15;7.88;;;21.30;99.90;;;;;;5070949;28;20202;-73
2022/06/22 05:38:59;;;;;;;11.07;9.82;;;21.50;99.90;;;;;;5071394;28;20228;-72
2022/06/22 05:41:29;;;;;;;11.43;8.68;;;21.50;99.90;;;;;;5070492;28;20229;-73
2022/06/22 05:43:58;;;;;;;12.88;7.93;;;21.50;99.90;;;;;;5071110;28;20641;-73
2022/06/22 05:46:27;;;;;;;9.40;8.27;;;21.50;99.90;;;;;;5070157;28;20264;-73
2022/06/22 05:48:56;;;;;;;10.85;9.02;;;21.50;99.90;;;;;;5070970;28;20251;-73
2022/06/22 05:51:32;;;;;;;13.27;9.38;;;21.40;99.90;;;;;;5070861;28;20248;-73
2022/06/22 05:54:03;;;;;;;10.00;8.98;;;21.40;99.90;;;;;;5070904;28;20198;-74
2022/06/22 05:56:38;;;;;;;12.73;8.57;;;21.30;99.90;;;;;;5070617;28;20206;-74
2022/06/22 05:59:13;;;;;;;12.57;9.75;;;21.20;99.90;;;;;;5070730;28;20227;-74
2022/06/22 06:01:48;;;;;;;10.73;8.30;;;21.40;99.90;;;;;;5070697;28;20342;-73
2022/06/22 06:04:24;;;;;;;13.60;10.20;;;21.50;99.90;;;;;;5070767;28;20210;-73
2022/06/22 06:06:53;;;;;;;12.35;9.25;;;21.40;99.90;;;;;;5069262;28;20251;-73
2022/06/22 06:09:23;;;;;;;11.25;8.77;;;21.30;99.90;;;;;;5069790;28;20281;-73
2022/06/22 06:11:57;;;;;;;11.77;9.18;;;21.40;99.90;;;;;;5071038;28;20206;-72
2022/06/22 06:14:28;;;;;;;13.05;9.15;;;21.40;99.90;;;;;;5071264;28;20202;-73
2022/06/22 06:17:02;;;;;;;10.20;9.20;;;21.50;99.90;;;;;;5071115;28;20697;-73
2022/06/22 06:19:33;;;;;;;10.80;9.70;;;21.40;99.90;;;;;;5072590;28;20723;-74
2022/06/22 06:22:04;;;;;;;10.32;9.13;;;21.20;99.90;;;;;;5072096;28;20736;-74
2022/06/22 06:24:37;;;;;;;13.95;10.50;;;21.20;99.90;;;;;;5069892;28;20293;-75
2022/06/22 06:29:58;;;;;;;11.88;8.95;;;21.40;99.90;;;;;;5070078;28;20205;-74
2022/06/22 06:32:37;;;;;;;11.77;9.05;;;21.40;99.90;;;;;;5069838;28;20217;-73
2022/06/22 06:35:13;;;;;;;10.50;9.45;;;21.40;99.90;;;;;;5070499;28;20206;-75
2022/06/22 06:37:52;;;;;;;10.48;9.07;;;21.30;99.90;;;;;;5070158;28;20634;-71
2022/06/22 06:40:25;;;;;;;10.50;9.57;;;21.30;99.90;;;;;;5069942;28;20214;-70
2022/06/22 06:42:57;;;;;;;11.10;9.75;;;21.50;99.90;;;;;;5069812;28;20294;-70
2022/06/22 06:45:28;;;;;;;13.45;10.90;;;21.40;99.90;;;;;;5070111;28;20263;-74
2022/06/22 06:48:03;;;;;;;16.30;8.93;;;21.50;99.90;;;;;;5070467;28;20644;-74
2022/06/22 06:50:35;;;;;;;11.43;10.25;;;21.40;99.90;;;;;;5069774;28;20719;-74
2022/06/22 06:53:10;;;;;;;13.77;10.23;;;21.40;99.90;;;;;;5069882;28;20267;-72
2022/06/22 06:55:44;;;;;;;10.77;9.77;;;21.60;99.90;;;;;;5069899;28;20693;-71
2022/06/22 06:58:19;;;;;;;10.65;9.52;;;21.50;99.90;;;;;;5070439;28;20264;-72
2022/06/22 07:00:48;;;;;;;12.25;9.88;;;21.50;99.90;;;;;;5070036;28;20214;-73
2022/06/22 07:03:21;;;;;;;14.98;10.00;;;21.70;99.90;;;;;;5069958;28;20242;-72
2022/06/22 07:05:49;;;;;;;10.38;9.40;;;22.10;99.90;;;;;;5070246;28;20260;-74
2022/06/22 07:08:19;;;;;;;12.57;9.43;;;22.30;99.90;;;;;;5069911;28;20209;-74
2022/06/22 07:10:51;;;;;;;12.15;10.55;;;22.40;99.90;;;;;;5051834;28;20454;-77
2022/06/22 07:13:25;;;;;;;12.70;9.70;;;22.40;99.90;;;;;;5064665;28;20563;-77
2022/06/22 07:15:55;;;;;;;10.73;9.30;;;22.50;99.90;;;;;;5068920;28;20201;-74
2022/06/22 07:18:28;;;;;;;13.73;9.20;;;22.50;99.90;;;;;;5062970;28;20210;-76
2022/06/22 07:21:02;;;;;;;9.80;8.85;;;22.60;99.90;;;;;;5077070;28;20206;-76
2022/06/22 07:23:34;;;;;;;11.75;8.48;;;22.90;99.90;;;;;;5073266;28;20279;-77
2022/06/22 07:26:09;;;;;;;11.00;8.07;;;22.90;99.90;;;;;;5070629;28;20723;-76
2022/06/22 07:28:44;;;;;;;11.35;8.32;;;22.70;99.90;;;;;;5074626;28;20264;-76
2022/06/22 07:31:16;;;;;;;11.55;9.75;;;22.60;99.90;;;;;;5079520;28;20610;-76
2022/06/22 07:33:50;;;;;;;12.30;7.65;;;22.50;99.90;;;;;;5077443;28;20263;-75
2022/06/22 07:36:21;;;;;;;8.15;7.32;;;22.70;99.90;;;;;;5077479;28;20210;-75
2022/06/22 07:38:55;;;;;;;9.93;9.05;;;23.00;99.90;;;;;;5069543;28;20818;-75
2022/06/22 07:41:23;;;;;;;9.93;8.40;;;23.40;99.90;;;;;;5060025;28;20276;-76
2022/06/22 07:43:55;;;;;;;11.32;7.95;;;23.40;99.90;;;;;;5072689;28;20329;-77
2022/06/22 07:46:31;;;;;;;7.63;6.82;;;23.30;99.90;;;;;;5082245;28;20292;-77
2022/06/22 07:49:09;;;;;;;8.68;7.78;;;23.00;99.90;;;;;;5083800;28;20634;-75
2022/06/22 07:51:38;;;;;;;9.10;7.93;;;22.90;99.90;;;;;;5084976;28;20209;-76
2022/06/22 07:54:14;;;;;;;8.95;7.32;;;22.70;99.90;;;;;;5085954;28;20206;-77
2022/06/22 07:56:51;;;;;;;10.13;6.50;;;22.60;99.90;;;;;;5086267;28;20215;-76
2022/06/22 07:59:24;;;;;;;7.80;5.15;;;22.70;99.90;;;;;;5086414;28;20213;-76
2022/06/22 08:01:55;;;;;;;7.53;5.28;;;22.80;99.90;;;;;;5086343;28;20272;-74
2022/06/22 08:04:29;;;;;;;7.43;5.35;;;22.80;99.90;;;;;;5068950;28;20254;-75
2022/06/22 08:07:00;;;;;;;7.93;5.95;;;22.90;99.90;;;;;;5088634;28;20206;-73
2022/06/22 08:09:34;;;;;;;5.85;4.90;;;23.00;99.90;;;;;;5091012;28;20220;-76
2022/06/22 08:12:05;;;;;;;4.90;4.45;;;23.10;99.90;;;;;;5078503;28;20217;-77
2022/06/22 08:14:38;;;;;;;6.00;4.68;;;23.00;99.90;;;;;;5073420;28;20198;-77
2022/06/22 08:17:09;;;;;;;5.18;4.20;;;23.90;99.90;;;;;;5074131;28;20210;-77
2022/06/22 08:19:38;;;;;;;4.93;4.53;;;24.20;99.90;;;;;;5072969;28;20202;-76
2022/06/22 08:22:07;;;;;;;4.57;3.97;;;24.00;99.90;;;;;;5074403;28;20449;-77
2022/06/22 08:24:41;;;;;;;6.10;4.07;;;24.00;99.90;;;;;;5074689;28;20268;-75
2022/06/22 08:27:13;;;;;;;4.50;3.95;;;24.00;99.90;;;;;;5075123;28;20210;-75
2022/06/22 08:29:40;;;;;;;4.57;4.05;;;24.00;99.90;;;;;;5078232;28;20210;-76
2022/06/22 08:32:15;;;;;;;4.75;4.20;;;24.00;99.90;;;;;;5076732;28;20202;-76
2022/06/22 08:34:49;;;;;;;5.97;3.88;;;24.00;99.90;;;;;;5079886;28;20201;-77
2022/06/22 08:37:22;;;;;;;4.65;4.25;;;24.40;99.90;;;;;;5079032;28;20202;-75
2022/06/22 08:39:53;;;;;;;7.32;3.42;;;24.80;99.90;;;;;;5080630;28;20233;-74
2022/06/22 08:42:32;;;;;;;3.40;3.00;;;24.80;99.90;;;;;;5079908;28;20266;-75
2022/06/22 08:45:11;;;;;;;3.92;3.50;;;25.00;99.90;;;;;;5081204;28;20217;-74
2022/06/22 08:48:06;;;;;;;6.00;4.07;;;25.30;99.90;;;;;;5083991;28;20209;-75
2022/06/22 08:51:25;;;;;;;3.97;3.47;;;25.40;99.90;;;;;;5076848;28;20576;-77
2022/06/22 08:54:11;;;;;;;6.32;4.50;;;25.70;99.90;;;;;;5063944;28;20203;-80
2022/06/22 08:56:50;;;;;;;3.70;3.28;;;25.80;99.90;;;;;;5071470;28;20210;-75
2022/06/22 08:59:50;;;;;;;4.70;3.72;;;26.10;99.90;;;;;;5070314;28;20259;-75
2022/06/22 09:02:34;;;;;;;4.60;3.15;;;27.10;99.90;;;;;;5062791;28;20206;-75
2022/06/22 09:05:36;;;;;;;3.78;3.42;;;26.00;99.90;;;;;;5071908;28;20742;-75
2022/06/22 09:08:17;;;;;;;6.95;3.20;;;26.40;99.90;;;;;;5028366;28;20251;-75
2022/06/22 09:11:07;;;;;;;5.70;3.28;;;26.50;99.90;;;;;;5071697;28;20210;-75
2022/06/22 09:14:14;;;;;;;4.07;2.85;;;26.40;99.90;;;;;;5072192;28;20263;-76
2022/06/22 09:16:58;;;;;;;3.17;2.78;;;26.90;99.90;;;;;;5071557;28;20637;-75
2022/06/22 09:19:43;;;;;;;3.15;2.65;;;28.70;99.90;;;;;;5071235;28;20206;-80
2022/06/22 09:22:16;;;;;;;6.28;4.10;;;29.30;99.90;;;;;;5071765;28;20214;-75
2022/06/22 09:24:58;;;;;;;3.70;2.72;;;28.30;99.90;;;;;;5071594;28;20202;-75
2022/06/22 09:27:36;;;;;;;2.92;2.67;;;31.70;99.90;;;;;;5071201;28;20296;-75
2022/06/22 09:30:28;;;;;;;4.25;2.25;;;33.60;99.90;;;;;;5058577;28;20260;-80
2022/06/22 09:33:14;;;;;;;3.72;2.65;;;36.10;99.90;;;;;;5067504;28;20624;-75
2022/06/22 09:36:10;;;;;;;4.80;2.90;;;38.30;99.90;;;;;;5071066;28;20251;-77
2022/06/22 09:39:09;;;;;;;2.90;2.53;;;39.00;99.90;;;;;;5058156;28;20239;-75
2022/06/22 09:41:48;;;;;;;5.25;2.95;;;37.80;99.90;;;;;;5070385;28;20217;-75
2022/06/22 09:44:46;;;;;;;4.13;2.78;;;37.10;99.90;;;;;;5071697;28;20233;-75
2022/06/22 09:47:36;;;;;;;2.63;2.42;;;37.10;99.90;;;;;;5059918;28;20255;-80
2022/06/22 09:50:32;;;;;;;3.70;3.40;;;33.10;99.90;;;;;;5071011;28;20205;-80
2022/06/22 09:53:30;;;;;;;2.65;2.45;;;31.80;99.90;;;;;;5061501;28;20228;-75
2022/06/22 09:56:24;;;;;;;3.15;2.92;;;31.30;99.90;;;;;;5071267;28;20197;-77
2022/06/22 09:59:26;;;;;;;3.83;3.22;;;30.10;99.90;;;;;;5057123;28;20201;-75
2022/06/22 10:02:03;;;;;;;3.83;3.03;;;28.30;99.90;;;;;;5070907;28;20616;-76
2022/06/22 10:05:15;;;;;;;11.00;3.85;;;27.30;99.90;;;;;;5070484;28;20237;-76
2022/06/22 10:07:54;;;;;;;3.33;2.65;;;27.80;99.90;;;;;;5059934;28;20237;-75
2022/06/22 10:10:33;;;;;;;3.03;2.15;;;29.30;99.90;;;;;;5069925;28;20210;-81
2022/06/22 10:13:48;;;;;;;5.53;3.50;;;34.50;99.90;;;;;;5061226;28;20208;-74
2022/06/22 10:16:46;;;;;;;3.58;2.88;;;34.70;99.90;;;;;;4998082;28;20215;-75
2022/06/22 10:19:36;;;;;;;3.75;3.10;;;31.30;99.90;;;;;;5070597;28;20215;-75
2022/06/22 10:22:14;;;;;;;3.53;3.17;;;34.20;99.90;;;;;;5070490;28;20236;-76
2022/06/22 10:25:06;;;;;;;6.70;3.35;;;36.60;99.90;;;;;;5070896;28;20267;-75
2022/06/22 10:28:02;;;;;;;2.70;2.50;;;38.30;99.90;;;;;;5070968;28;20273;-77
2022/06/22 10:30:33;;;;;;;3.38;3.10;;;39.30;99.90;;;;;;5071786;28;20209;-75
2022/06/22 10:33:45;;;;;;;6.85;2.45;;;34.60;99.90;;;;;;5071303;28;20247;-76
2022/06/22 10:36:45;;;;;;;3.47;3.17;;;34.30;99.90;;;;;;5078476;28;20208;-75
2022/06/22 10:39:32;;;;;;;3.63;2.60;;;35.50;99.90;;;;;;5074828;28;20269;-74
2022/06/22 10:45:16;;;;;;;2.88;2.60;;;30.90;99.90;;;;;;5073442;28;20712;-76
2022/06/22 10:48:08;;;;;;;3.40;2.95;;;30.30;99.90;;;;;;5081633;28;20281;-75
2022/06/22 10:50:45;;;;;;;4.15;2.42;;;29.80;99.90;;;;;;5072172;28;20214;-74
2022/06/22 10:53:37;;;;;;;3.15;2.80;;;28.90;99.90;;;;;;5082982;28;20329;-79
2022/06/22 10:56:18;;;;;;;3.38;3.08;;;29.20;99.90;;;;;;5074139;28;20243;-77
2022/06/22 10:59:04;;;;;;;3.25;2.95;;;29.20;99.90;;;;;;5075029;28;20208;-76
2022/06/22 11:01:52;;;;;;;3.50;3.10;;;28.90;99.90;;;;;;5080488;28;20204;-75
2022/06/22 11:05:07;;;;;;;4.05;2.78;;;29.00;99.90;;;;;;5083422;28;20249;-75
2022/06/22 11:08:06;;;;;;;4.88;2.75;;;29.20;99.90;;;;;;4998994;28;20613;-75
2022/06/22 11:11:03;;;;;;;5.03;3.33;;;29.30;99.90;;;;;;5006098;28;20208;-77
2022/06/22 11:14:08;;;;;;;2.85;2.65;;;29.60;99.90;;;;;;5052260;28;20213;-74
2022/06/22 11:16:58;;;;;;;3.63;2.38;;;29.70;99.90;;;;;;5070557;28;20214;-74
2022/06/22 11:19:54;;;;;;;3.80;3.20;;;29.10;99.90;;;;;;5072259;28;20202;-73
2022/06/22 11:22:29;;;;;;;3.33;2.70;;;29.30;99.90;;;;;;5075490;28;20602;-72
2022/06/22 11:31:40;;;;;;;4.50;3.53;;;28.00;99.90;;;;;;5075895;28;20197;-73
2022/06/22 11:34:35;;;;;;;2.85;2.55;;;28.80;99.90;;;;;;5080444;28;20659;-73
2022/06/22 11:37:10;;;;;;;4.47;3.53;;;28.90;99.90;;;;;;5071687;28;20221;-73
2022/06/22 11:40:06;;;;;;;5.18;3.60;;;28.60;99.90;;;;;;5074579;28;20249;-73
2022/06/22 11:42:46;;;;;;;4.07;3.42;;;28.90;99.90;;;;;;5073183;28;20210;-73
2022/06/22 11:48:41;;;;;;;5.18;2.90;;;28.40;99.90;;;;;;5067669;28;20214;-73
2022/06/22 11:51:19;;;;;;;3.78;3.10;;;28.30;99.90;;;;;;5073211;28;20211;-74
2022/06/22 11:54:21;;;;;;;4.75;2.88;;;29.30;99.90;;;;;;5073260;28;20224;-74
2022/06/22 11:57:02;;;;;;;2.60;2.40;;;29.40;99.90;;;;;;5069326;28;20216;-74
2022/06/22 11:59:49;;;;;;;4.32;3.00;;;28.70;99.90;;;;;;5059154;28;20582;-77
2022/06/22 12:02:48;;;;;;;3.38;3.05;;;28.60;99.90;;;;;;5073106;28;20206;-75
2022/06/22 12:05:31;;;;;;;5.05;3.28;;;28.40;99.90;;;;;;5072792;28;20209;-73
2022/06/22 12:08:33;;;;;;;3.10;2.80;;;28.50;99.90;;;;;;5059324;28;20656;-77
2022/06/22 12:11:14;;;;;;;5.75;3.30;;;28.40;99.90;;;;;;5072932;28;20220;-74
2022/06/22 12:17:02;;;;;;;5.53;3.33;;;29.10;99.90;;;;;;5063501;28;20255;-76
2022/06/22 12:19:41;;;;;;;2.80;2.60;;;29.00;99.90;;;;;;5072056;28;20592;-73
2022/06/22 12:22:18;;;;;;;2.90;2.28;;;28.80;99.90;;;;;;5072635;28;20698;-74
2022/06/22 12:25:03;;;;;;;3.30;2.10;;;28.90;99.90;;;;;;5073039;28;20225;-75
2022/06/22 12:27:34;;;;;;;3.10;2.85;;;28.60;99.90;;;;;;5072517;28;20206;-79
2022/06/22 12:30:33;;;;;;;3.38;2.60;;;28.20;99.90;;;;;;5059309;28;20209;-77
2022/06/22 12:33:05;;;;;;;5.28;2.30;;;28.00;99.90;;;;;;5072188;28;20271;-79
2022/06/22 12:35:42;;;;;;;4.00;2.78;;;28.20;99.90;;;;;;5072263;28;20214;-77
2022/06/22 12:38:20;;;;;;;4.97;2.97;;;28.20;99.90;;;;;;5072571;28;20201;-76
2022/06/22 12:40:55;;;;;;;5.88;2.80;;;28.40;99.90;;;;;;5072352;28;20206;-74
2022/06/22 12:44:04;;;;;;;5.47;3.20;;;28.50;99.90;;;;;;5072170;28;20225;-77
2022/06/22 12:46:46;;;;;;;4.38;2.88;;;28.60;99.90;;;;;;5071942;28;20275;-81
2022/06/22 12:49:29;;;;;;;3.42;2.95;;;28.90;99.90;;;;;;5072733;28;20209;-82
2022/06/22 12:52:02;;;;;;;5.75;3.03;;;29.20;99.90;;;;;;5072491;28;20260;-81
2022/06/22 12:54:33;;;;;;;5.13;3.03;;;29.60;99.90;;;;;;5072207;28;20669;-79
2022/06/22 12:57:03;;;;;;;2.40;2.20;;;29.50;99.90;;;;;;5072071;28;20654;-76
2022/06/22 12:59:35;;;;;;;4.13;2.50;;;29.90;99.90;;;;;;5071897;28;20206;-76
2022/06/22 13:02:04;;;;;;;4.13;2.42;;;29.90;99.90;;;;;;5072038;28;20198;-79
2022/06/22 13:04:34;;;;;;;5.65;2.67;;;29.80;99.90;;;;;;5071772;28;20713;-77
2022/06/22 13:07:07;;;;;;;3.88;3.08;;;30.10;99.90;;;;;;5071954;28;20206;-78
2022/06/22 13:09:35;;;;;;;2.72;2.38;;;30.50;99.90;;;;;;5071333;28;20206;-80
2022/06/22 13:12:11;;;;;;;6.47;2.35;;;30.30;99.90;;;;;;5071756;28;20255;-78
2022/06/22 13:14:45;;;;;;;4.65;2.33;;;30.10;99.90;;;;;;5071622;28;20629;-79
2022/06/22 13:17:25;;;;;;;7.18;2.47;;;29.90;99.90;;;;;;5071911;28;20241;-80
2022/06/22 13:20:08;;;;;;;5.55;2.00;;;30.00;99.90;;;;;;5058776;28;20285;-79
2022/06/22 13:22:43;;;;;;;5.95;2.60;;;30.00;99.90;;;;;;5071012;28;20259;-78
2022/06/22 13:25:21;;;;;;;3.22;2.08;;;29.80;99.90;;;;;;5071670;28;20237;-76
2022/06/22 13:27:55;;;;;;;2.97;2.65;;;29.50;99.90;;;;;;5071356;28;20217;-78
2022/06/22 13:30:28;;;;;;;2.83;2.22;;;29.30;99.90;;;;;;5070907;28;20209;-77
2022/06/22 13:33:03;;;;;;;2.70;2.00;;;29.60;99.90;;;;;;5071178;28;20221;-74
2022/06/22 13:35:35;;;;;;;2.53;2.33;;;29.60;99.90;;;;;;5071093;28;20210;-78
2022/06/22 13:38:17;;;;;;;4.18;2.28;;;30.00;99.90;;;;;;5071066;28;20213;-77
2022/06/22 13:40:54;;;;;;;3.17;2.42;;;30.40;99.90;;;;;;5071417;28;20202;-77
2022/06/22 13:43:34;;;;;;;3.67;2.08;;;30.40;99.90;;;;;;5070465;28;20279;-76
2022/06/22 13:46:22;;;;;;;3.38;2.60;;;30.20;99.90;;;;;;5070880;28;20209;-76
2022/06/22 13:48:56;;;;;;;4.03;2.63;;;30.00;99.90;;;;;;5058634;28;20256;-76
2022/06/22 13:51:51;;;;;;;4.28;3.15;;;29.30;99.90;;;;;;5070379;28;20264;-76
2022/06/22 13:54:44;;;;;;;3.60;2.25;;;28.80;99.90;;;;;;5070757;28;20217;-78
2022/06/22 13:57:18;;;;;;;2.70;2.05;;;28.70;99.90;;;;;;5057561;28;20209;-74
2022/06/22 13:59:52;;;;;;;5.10;3.40;;;28.70;99.90;;;;;;5070742;28;20206;-74